sensor_id;sensor_type;location;lat;lon;timestamp;temperature;humidity
46490;DHT22;32204;49.160;8.580;2023-02-03T08:27:32;20.70;99.90
46490;DHT22;32204;49.160;8.580;2023-02-03T08:29:58;21.00;99.90
46490;DHT22;32204;49.160;8.580;2023-02-03T08:32:24;21.10;99.90
46490;DHT22;32204;49.160;8.580;2023-02-03T08:34:51;21.30;99.90
46490;DHT22;32204;49.160;8.580;2023-02-03T08:37:19;21.40;99.90
46490;DHT22;32204;49.160;8.580;2023-02-03T08:39:45;21.50;99.90
46490;DHT22;32204;49.160;8.580;2023-02-03T08:42:11;21.60;99.90
46490;DHT22;32204;49.160;8.580;2023-02-03T08:44:37;21.70;99.50
46490;DHT22;32204;49.160;8.580;2023-02-03T08:47:06;21.70;94.60
46490;DHT22;32204;49.160;8.580;2023-02-03T08:49:32;21.80;92.00
46490;DHT22;32204;49.160;8.580;2023-02-03T08:52:00;21.80;90.10
46490;DHT22;32204;49.160;8.580;2023-02-03T08:54:26;21.80;75.10
46490;DHT22;32204;49.160;8.580;2023-02-03T08:56:52;21.80;74.90
46490;DHT22;32204;49.160;8.580;2023-02-03T08:59:18;21.80;73.30
46490;DHT22;32204;49.160;8.580;2023-02-03T09:01:43;21.90;73.50
46490;DHT22;32204;49.160;8.580;2023-02-03T09:04:11;21.80;69.20
46490;DHT22;32204;49.160;8.580;2023-02-03T09:06:37;21.80;69.30
46490;DHT22;32204;49.160;8.580;2023-02-03T09:09:03;21.90;69.60
46490;DHT22;32204;49.160;8.580;2023-02-03T09:11:29;21.90;79.10
46490;DHT22;32204;49.160;8.580;2023-02-03T09:13:54;21.90;79.50
46490;DHT22;32204;49.160;8.580;2023-02-03T09:16:22;21.90;91.60
46490;DHT22;32204;49.160;8.580;2023-02-03T09:18:48;21.90;72.40
46490;DHT22;32204;49.160;8.580;2023-02-03T09:21:14;21.90;70.50
46490;DHT22;32204;49.160;8.580;2023-02-03T09:23:41;22.00;84.40
46490;DHT22;32204;49.160;8.580;2023-02-03T09:26:09;21.90;61.20
46490;DHT22;32204;49.160;8.580;2023-02-03T09:28:35;22.00;61.80
46490;DHT22;32204;49.160;8.580;2023-02-03T09:31:02;22.00;54.30
46490;DHT22;32204;49.160;8.580;2023-02-03T09:33:28;21.90;55.40
46490;DHT22;32204;49.160;8.580;2023-02-03T09:35:55;22.00;57.50
46490;DHT22;32204;49.160;8.580;2023-02-03T09:38:22;22.00;59.40
46490;DHT22;32204;49.160;8.580;2023-02-03T09:43:49;22.00;83.10
46490;DHT22;32204;49.160;8.580;2023-02-03T09:46:18;22.00;87.10
46490;DHT22;32204;49.160;8.580;2023-02-03T09:48:52;22.00;87.10
46490;DHT22;32204;49.160;8.580;2023-02-03T09:51:23;22.10;94.10
46490;DHT22;32204;49.160;8.580;2023-02-03T09:53:59;22.10;88.40
46490;DHT22;32204;49.160;8.580;2023-02-03T09:56:33;22.10;77.00
46490;DHT22;32204;49.160;8.580;2023-02-03T09:59:00;22.10;92.70
46490;DHT22;32204;49.160;8.580;2023-02-03T10:01:56;22.20;89.50
46490;DHT22;32204;49.160;8.580;2023-02-03T10:07:05;22.20;95.30
46490;DHT22;32204;49.160;8.580;2023-02-03T10:09:59;22.20;95.70
46490;DHT22;32204;49.160;8.580;2023-02-03T10:18:09;22.30;98.10
46490;DHT22;32204;49.160;8.580;2023-02-03T10:20:48;22.30;92.10
46490;DHT22;32204;49.160;8.580;2023-02-03T10:23:33;22.30;96.20
46490;DHT22;32204;49.160;8.580;2023-02-03T10:26:02;22.30;91.80
46490;DHT22;32204;49.160;8.580;2023-02-03T10:28:34;22.30;90.30
46490;DHT22;32204;49.160;8.580;2023-02-03T10:31:07;22.30;92.40
46490;DHT22;32204;49.160;8.580;2023-02-03T10:33:37;22.30;90.90
46490;DHT22;32204;49.160;8.580;2023-02-03T10:40:57;22.10;85.90
46490;DHT22;32204;49.160;8.580;2023-02-03T10:43:23;22.20;90.90
46490;DHT22;32204;49.160;8.580;2023-02-03T10:46:07;22.20;92.20
46490;DHT22;32204;49.160;8.580;2023-02-03T10:48:33;22.20;95.10
46490;DHT22;32204;49.160;8.580;2023-02-03T10:50:58;22.20;93.80
46490;DHT22;32204;49.160;8.580;2023-02-03T11:41:46;8.70;32.60
46490;DHT22;32204;49.160;8.580;2023-02-03T11:44:24;8.80;16.80
46490;DHT22;32204;49.160;8.580;2023-02-03T11:47:00;8.80;5.10
46490;DHT22;32204;49.160;8.580;2023-02-03T11:57:43;8.70;1.00
46490;DHT22;32204;49.160;8.580;2023-02-03T12:05:57;8.80;1.00
46490;DHT22;32204;49.160;8.580;2023-02-03T12:14:10;8.90;1.00
46490;DHT22;32204;49.160;8.580;2023-02-03T12:16:57;9.00;1.00
46490;DHT22;32204;49.160;8.580;2023-02-03T12:20:04;8.90;1.00
46490;DHT22;32204;49.160;8.580;2023-02-03T12:22:42;8.90;1.00
46490;DHT22;32204;49.160;8.580;2023-02-03T12:28:20;8.90;1.00
46490;DHT22;32204;49.160;8.580;2023-02-03T12:30:54;8.80;1.00
46490;DHT22;32204;49.160;8.580;2023-02-03T12:33:37;8.80;1.00
46490;DHT22;32204;49.160;8.580;2023-02-03T12:36:10;8.80;1.00
46490;DHT22;32204;49.160;8.580;2023-02-03T12:38:40;8.80;1.00
46490;DHT22;32204;49.160;8.580;2023-02-03T12:41:11;8.80;1.00
46490;DHT22;32204;49.160;8.580;2023-02-03T12:43:42;8.70;1.00
46490;DHT22;32204;49.160;8.580;2023-02-03T12:51:13;8.70;1.00
46490;DHT22;32204;49.160;8.580;2023-02-03T12:53:46;8.70;1.00
46490;DHT22;32204;49.160;8.580;2023-02-03T12:56:21;8.70;1.00
46490;DHT22;32204;49.160;8.580;2023-02-03T12:59:02;8.70;1.00
46490;DHT22;32204;49.160;8.580;2023-02-03T13:01:37;8.70;1.00
46490;DHT22;32204;49.160;8.580;2023-02-03T13:04:17;8.80;1.00
46490;DHT22;32204;49.160;8.580;2023-02-03T13:07:50;8.80;1.00
46490;DHT22;32204;49.160;8.580;2023-02-03T13:10:18;8.80;1.00
46490;DHT22;32204;49.160;8.580;2023-02-03T13:13:07;8.80;1.00
46490;DHT22;32204;49.160;8.580;2023-02-03T13:15:38;8.80;1.00
46490;DHT22;32204;49.160;8.580;2023-02-03T13:20:40;8.80;1.00
46490;DHT22;32204;49.160;8.580;2023-02-03T13:23:09;8.80;1.00
46490;DHT22;32204;49.160;8.580;2023-02-03T13:28:17;8.90;1.00
46490;DHT22;32204;49.160;8.580;2023-02-03T13:41:41;9.00;1.00
46490;DHT22;32204;49.160;8.580;2023-02-03T13:44:15;9.00;1.00
46490;DHT22;32204;49.160;8.580;2023-02-03T13:46:47;9.00;1.00
46490;DHT22;32204;49.160;8.580;2023-02-03T13:49:44;9.10;1.00
46490;DHT22;32204;49.160;8.580;2023-02-03T13:52:37;9.10;1.00
46490;DHT22;32204;49.160;8.580;2023-02-03T13:55:34;9.10;1.00
46490;DHT22;32204;49.160;8.580;2023-02-03T13:58:01;9.10;1.00
46490;DHT22;32204;49.160;8.580;2023-02-03T14:16:45;9.10;1.00
46490;DHT22;32204;49.160;8.580;2023-02-03T14:22:00;9.10;1.00
46490;DHT22;32204;49.160;8.580;2023-02-03T14:24:38;9.10;1.00
46490;DHT22;32204;49.160;8.580;2023-02-03T14:27:19;9.10;1.00
46490;DHT22;32204;49.160;8.580;2023-02-03T14:29:45;9.00;1.00
46490;DHT22;32204;49.160;8.580;2023-02-03T14:32:47;9.00;1.00
46490;DHT22;32204;49.160;8.580;2023-02-03T14:35:19;9.00;1.00
46490;DHT22;32204;49.160;8.580;2023-02-03T14:37:54;9.00;1.00
46490;DHT22;32204;49.160;8.580;2023-02-03T14:43:40;9.00;1.00
46490;DHT22;32204;49.160;8.580;2023-02-03T14:49:34;8.90;1.00
46490;DHT22;32204;49.160;8.580;2023-02-03T14:54:48;8.90;1.00
46490;DHT22;32204;49.160;8.580;2023-02-03T14:57:45;8.90;1.00
46490;DHT22;32204;49.160;8.580;2023-02-03T15:05:41;8.80;7.20
46490;DHT22;32204;49.160;8.580;2023-02-03T15:11:30;8.80;68.90
46490;DHT22;32204;49.160;8.580;2023-02-03T15:16:42;8.80;99.90
46490;DHT22;32204;49.160;8.580;2023-02-03T15:19:19;8.70;99.90
46490;DHT22;32204;49.160;8.580;2023-02-03T15:21:46;8.70;99.90
46490;DHT22;32204;49.160;8.580;2023-02-03T15:24:18;8.70;99.90
46490;DHT22;32204;49.160;8.580;2023-02-03T15:26:51;8.60;99.90
46490;DHT22;32204;49.160;8.580;2023-02-03T15:29:20;8.50;99.90
46490;DHT22;32204;49.160;8.580;2023-02-03T15:31:48;8.50;99.90
46490;DHT22;32204;49.160;8.580;2023-02-03T15:36:59;8.50;99.90
46490;DHT22;32204;49.160;8.580;2023-02-03T15:39:47;8.40;99.90
46490;DHT22;32204;49.160;8.580;2023-02-03T15:42:21;8.40;99.90
46490;DHT22;32204;49.160;8.580;2023-02-03T15:45:08;8.40;99.90
46490;DHT22;32204;49.160;8.580;2023-02-03T15:47:50;8.40;99.90
46490;DHT22;32204;49.160;8.580;2023-02-03T15:56:19;8.40;99.90
46490;DHT22;32204;49.160;8.580;2023-02-03T15:58:46;8.40;99.90
46490;DHT22;32204;49.160;8.580;2023-02-03T16:01:13;8.30;99.90
46490;DHT22;32204;49.160;8.580;2023-02-03T16:03:41;8.30;99.90
46490;DHT22;32204;49.160;8.580;2023-02-03T16:06:24;8.30;99.90
46490;DHT22;32204;49.160;8.580;2023-02-03T16:08:53;8.30;99.90
46490;DHT22;32204;49.160;8.580;2023-02-03T16:11:28;8.30;99.90
46490;DHT22;32204;49.160;8.580;2023-02-03T16:13:55;8.30;99.90
46490;DHT22;32204;49.160;8.580;2023-02-03T16:19:04;8.30;99.90
46490;DHT22;32204;49.160;8.580;2023-02-03T16:29:54;8.30;99.90
46490;DHT22;32204;49.160;8.580;2023-02-03T16:33:09;8.20;99.90
46490;DHT22;32204;49.160;8.580;2023-02-03T16:35:55;8.20;99.90
46490;DHT22;32204;49.160;8.580;2023-02-03T16:38:46;8.20;99.90
46490;DHT22;32204;49.160;8.580;2023-02-03T16:41:31;8.20;99.90
46490;DHT22;32204;49.160;8.580;2023-02-03T16:44:16;8.30;99.90
46490;DHT22;32204;49.160;8.580;2023-02-03T16:47:00;8.30;99.90
46490;DHT22;32204;49.160;8.580;2023-02-03T16:49:44;8.30;99.90
46490;DHT22;32204;49.160;8.580;2023-02-03T16:52:29;8.30;99.90
46490;DHT22;32204;49.160;8.580;2023-02-03T16:54:55;8.30;99.90
46490;DHT22;32204;49.160;8.580;2023-02-03T16:57:20;8.30;99.90
46490;DHT22;32204;49.160;8.580;2023-02-03T16:59:46;8.30;99.90
46490;DHT22;32204;49.160;8.580;2023-02-03T17:02:11;8.40;99.90
46490;DHT22;32204;49.160;8.580;2023-02-03T17:04:37;8.30;99.90
46490;DHT22;32204;49.160;8.580;2023-02-03T17:07:03;8.40;99.90
46490;DHT22;32204;49.160;8.580;2023-02-03T17:09:33;8.40;99.90
46490;DHT22;32204;49.160;8.580;2023-02-03T17:12:02;8.40;99.90
46490;DHT22;32204;49.160;8.580;2023-02-03T17:14:28;8.40;99.90
46490;DHT22;32204;49.160;8.580;2023-02-03T17:16:54;8.40;99.90
46490;DHT22;32204;49.160;8.580;2023-02-03T17:19:20;8.40;99.90
46490;DHT22;32204;49.160;8.580;2023-02-03T17:21:45;8.40;99.90
46490;DHT22;32204;49.160;8.580;2023-02-03T17:24:15;8.40;99.90
46490;DHT22;32204;49.160;8.580;2023-02-03T17:26:40;8.40;99.90
46490;DHT22;32204;49.160;8.580;2023-02-03T17:29:06;8.50;99.90
46490;DHT22;32204;49.160;8.580;2023-02-03T17:31:31;8.50;99.90
46490;DHT22;32204;49.160;8.580;2023-02-03T17:33:58;8.50;99.90
46490;DHT22;32204;49.160;8.580;2023-02-03T17:36:24;8.50;99.90
46490;DHT22;32204;49.160;8.580;2023-02-03T17:38:51;8.50;99.90
46490;DHT22;32204;49.160;8.580;2023-02-03T17:41:20;8.50;99.90
46490;DHT22;32204;49.160;8.580;2023-02-03T17:43:47;8.50;99.90
46490;DHT22;32204;49.160;8.580;2023-02-03T17:46:16;8.60;99.90
46490;DHT22;32204;49.160;8.580;2023-02-03T17:48:42;8.50;99.90
46490;DHT22;32204;49.160;8.580;2023-02-03T17:51:14;8.60;99.90
46490;DHT22;32204;49.160;8.580;2023-02-03T17:53:40;8.60;99.90
46490;DHT22;32204;49.160;8.580;2023-02-03T17:56:16;8.50;99.90
46490;DHT22;32204;49.160;8.580;2023-02-03T17:58:42;8.50;99.90
46490;DHT22;32204;49.160;8.580;2023-02-03T18:01:27;8.60;99.90
46490;DHT22;32204;49.160;8.580;2023-02-03T18:03:58;8.60;99.90
46490;DHT22;32204;49.160;8.580;2023-02-03T18:06:25;8.60;99.90
46490;DHT22;32204;49.160;8.580;2023-02-03T18:08:51;8.60;99.90
46490;DHT22;32204;49.160;8.580;2023-02-03T18:11:19;8.60;99.90
46490;DHT22;32204;49.160;8.580;2023-02-03T18:13:47;8.60;99.90
46490;DHT22;32204;49.160;8.580;2023-02-03T18:16:18;8.60;99.90
46490;DHT22;32204;49.160;8.580;2023-02-03T18:18:46;8.60;99.90
46490;DHT22;32204;49.160;8.580;2023-02-03T18:21:13;8.60;99.90
46490;DHT22;32204;49.160;8.580;2023-02-03T18:23:39;8.60;99.90
46490;DHT22;32204;49.160;8.580;2023-02-03T18:26:06;8.60;99.90
46490;DHT22;32204;49.160;8.580;2023-02-03T18:28:32;8.60;99.90
46490;DHT22;32204;49.160;8.580;2023-02-03T18:30:59;8.60;99.90
46490;DHT22;32204;49.160;8.580;2023-02-03T18:33:27;8.60;99.90
46490;DHT22;32204;49.160;8.580;2023-02-03T18:35:54;8.60;99.90
46490;DHT22;32204;49.160;8.580;2023-02-03T18:38:20;8.60;99.90
46490;DHT22;32204;49.160;8.580;2023-02-03T18:40:45;8.60;99.90
46490;DHT22;32204;49.160;8.580;2023-02-03T18:43:11;8.60;99.90
46490;DHT22;32204;49.160;8.580;2023-02-03T18:45:37;8.60;99.90
46490;DHT22;32204;49.160;8.580;2023-02-03T18:48:03;8.60;99.90
46490;DHT22;32204;49.160;8.580;2023-02-03T18:50:29;8.50;99.90
46490;DHT22;32204;49.160;8.580;2023-02-03T18:52:55;8.60;99.90
46490;DHT22;32204;49.160;8.580;2023-02-03T18:55:20;8.50;99.90
46490;DHT22;32204;49.160;8.580;2023-02-03T18:57:46;8.60;99.90
46490;DHT22;32204;49.160;8.580;2023-02-03T19:00:12;8.50;99.90
46490;DHT22;32204;49.160;8.580;2023-02-03T19:02:39;8.50;99.90
46490;DHT22;32204;49.160;8.580;2023-02-03T19:05:06;8.50;99.90
46490;DHT22;32204;49.160;8.580;2023-02-03T19:07:32;8.50;99.90
46490;DHT22;32204;49.160;8.580;2023-02-03T19:09:58;8.50;99.90
46490;DHT22;32204;49.160;8.580;2023-02-03T19:12:24;8.60;99.90
46490;DHT22;32204;49.160;8.580;2023-02-03T19:14:50;8.50;99.90
46490;DHT22;32204;49.160;8.580;2023-02-03T19:17:17;8.50;99.90
46490;DHT22;32204;49.160;8.580;2023-02-03T19:19:43;8.60;99.90
46490;DHT22;32204;49.160;8.580;2023-02-03T19:22:11;8.60;99.90
46490;DHT22;32204;49.160;8.580;2023-02-03T19:24:36;8.60;99.90
46490;DHT22;32204;49.160;8.580;2023-02-03T19:27:02;8.60;99.90
46490;DHT22;32204;49.160;8.580;2023-02-03T19:29:28;8.60;99.90
46490;DHT22;32204;49.160;8.580;2023-02-03T19:31:53;8.70;99.90
46490;DHT22;32204;49.160;8.580;2023-02-03T19:34:19;8.70;99.90
46490;DHT22;32204;49.160;8.580;2023-02-03T19:36:45;8.70;99.90
46490;DHT22;32204;49.160;8.580;2023-02-03T19:39:12;8.60;99.90
46490;DHT22;32204;49.160;8.580;2023-02-03T19:41:37;8.60;99.90
46490;DHT22;32204;49.160;8.580;2023-02-03T19:44:04;8.70;99.90
46490;DHT22;32204;49.160;8.580;2023-02-03T19:46:32;8.70;99.90
46490;DHT22;32204;49.160;8.580;2023-02-03T19:49:02;8.70;99.90
46490;DHT22;32204;49.160;8.580;2023-02-03T19:51:31;8.70;99.90
46490;DHT22;32204;49.160;8.580;2023-02-03T19:53:57;8.70;99.90
46490;DHT22;32204;49.160;8.580;2023-02-03T19:56:23;8.70;99.90
46490;DHT22;32204;49.160;8.580;2023-02-03T19:58:49;8.70;99.90
46490;DHT22;32204;49.160;8.580;2023-02-03T20:01:17;8.70;99.90
46490;DHT22;32204;49.160;8.580;2023-02-03T20:03:42;8.80;99.90
46490;DHT22;32204;49.160;8.580;2023-02-03T20:06:08;8.70;99.90
46490;DHT22;32204;49.160;8.580;2023-02-03T20:08:34;8.70;99.90
46490;DHT22;32204;49.160;8.580;2023-02-03T20:11:00;8.80;99.90
46490;DHT22;32204;49.160;8.580;2023-02-03T20:13:27;8.80;99.90
46490;DHT22;32204;49.160;8.580;2023-02-03T20:15:53;8.80;99.90
46490;DHT22;32204;49.160;8.580;2023-02-03T20:18:19;8.80;99.90
46490;DHT22;32204;49.160;8.580;2023-02-03T20:20:49;8.80;99.90
46490;DHT22;32204;49.160;8.580;2023-02-03T20:23:16;8.80;99.90
46490;DHT22;32204;49.160;8.580;2023-02-03T20:25:42;8.80;99.90
46490;DHT22;32204;49.160;8.580;2023-02-03T20:28:07;8.80;99.90
46490;DHT22;32204;49.160;8.580;2023-02-03T20:30:33;8.80;99.90
46490;DHT22;32204;49.160;8.580;2023-02-03T20:32:59;8.80;99.90
46490;DHT22;32204;49.160;8.580;2023-02-03T20:35:25;8.80;99.90
46490;DHT22;32204;49.160;8.580;2023-02-03T20:37:52;8.90;99.90
46490;DHT22;32204;49.160;8.580;2023-02-03T20:40:19;8.90;99.90
46490;DHT22;32204;49.160;8.580;2023-02-03T20:42:47;8.90;99.90
46490;DHT22;32204;49.160;8.580;2023-02-03T20:45:14;8.80;99.90
46490;DHT22;32204;49.160;8.580;2023-02-03T20:47:40;8.80;99.90
46490;DHT22;32204;49.160;8.580;2023-02-03T20:50:13;8.80;99.90
46490;DHT22;32204;49.160;8.580;2023-02-03T20:52:40;8.80;99.90
46490;DHT22;32204;49.160;8.580;2023-02-03T20:55:13;8.80;99.90
46490;DHT22;32204;49.160;8.580;2023-02-03T20:57:39;8.80;99.90
46490;DHT22;32204;49.160;8.580;2023-02-03T21:00:15;8.70;99.90
46490;DHT22;32204;49.160;8.580;2023-02-03T21:02:42;8.70;99.90
46490;DHT22;32204;49.160;8.580;2023-02-03T21:05:42;8.70;99.90
46490;DHT22;32204;49.160;8.580;2023-02-03T21:08:17;8.70;99.90
46490;DHT22;32204;49.160;8.580;2023-02-03T21:10:44;8.80;99.90
46490;DHT22;32204;49.160;8.580;2023-02-03T21:13:24;8.80;99.90
46490;DHT22;32204;49.160;8.580;2023-02-03T21:15:53;8.80;99.90
46490;DHT22;32204;49.160;8.580;2023-02-03T21:18:38;8.80;99.90
46490;DHT22;32204;49.160;8.580;2023-02-03T21:21:12;8.80;99.90
46490;DHT22;32204;49.160;8.580;2023-02-03T21:23:40;8.80;99.90
46490;DHT22;32204;49.160;8.580;2023-02-03T21:26:35;8.80;99.90
46490;DHT22;32204;49.160;8.580;2023-02-03T21:29:01;8.90;99.90
46490;DHT22;32204;49.160;8.580;2023-02-03T21:31:29;8.90;99.90
46490;DHT22;32204;49.160;8.580;2023-02-03T21:34:00;8.90;99.90
46490;DHT22;32204;49.160;8.580;2023-02-03T21:36:30;9.00;99.90
46490;DHT22;32204;49.160;8.580;2023-02-03T21:38:57;9.00;99.90
46490;DHT22;32204;49.160;8.580;2023-02-03T21:41:31;9.00;99.90
46490;DHT22;32204;49.160;8.580;2023-02-03T21:43:57;9.10;99.90
46490;DHT22;32204;49.160;8.580;2023-02-03T21:46:28;9.10;99.90
46490;DHT22;32204;49.160;8.580;2023-02-03T21:48:57;9.10;99.90
46490;DHT22;32204;49.160;8.580;2023-02-03T21:51:28;9.10;99.90
46490;DHT22;32204;49.160;8.580;2023-02-03T21:53:57;9.10;99.90
46490;DHT22;32204;49.160;8.580;2023-02-03T21:56:28;9.10;99.90
46490;DHT22;32204;49.160;8.580;2023-02-03T21:58:58;9.10;99.90
46490;DHT22;32204;49.160;8.580;2023-02-03T22:01:25;9.10;99.90
46490;DHT22;32204;49.160;8.580;2023-02-03T22:03:53;9.10;99.90
46490;DHT22;32204;49.160;8.580;2023-02-03T22:06:20;9.10;99.90
46490;DHT22;32204;49.160;8.580;2023-02-03T22:08:49;9.10;99.90
46490;DHT22;32204;49.160;8.580;2023-02-03T22:11:16;9.10;99.90
46490;DHT22;32204;49.160;8.580;2023-02-03T22:13:43;9.10;99.90
46490;DHT22;32204;49.160;8.580;2023-02-03T22:16:09;9.10;99.90
46490;DHT22;32204;49.160;8.580;2023-02-03T22:18:35;9.10;99.90
46490;DHT22;32204;49.160;8.580;2023-02-03T22:21:01;9.10;99.90
46490;DHT22;32204;49.160;8.580;2023-02-03T22:23:28;9.10;99.90
46490;DHT22;32204;49.160;8.580;2023-02-03T22:25:53;9.10;99.90
46490;DHT22;32204;49.160;8.580;2023-02-03T22:28:19;9.10;99.90
46490;DHT22;32204;49.160;8.580;2023-02-03T22:30:45;9.10;99.90
46490;DHT22;32204;49.160;8.580;2023-02-03T22:33:10;9.10;99.90
46490;DHT22;32204;49.160;8.580;2023-02-03T22:35:36;9.10;99.90
46490;DHT22;32204;49.160;8.580;2023-02-03T22:38:02;9.20;99.90
46490;DHT22;32204;49.160;8.580;2023-02-03T22:40:27;9.10;99.90
46490;DHT22;32204;49.160;8.580;2023-02-03T22:42:53;9.10;99.90
46490;DHT22;32204;49.160;8.580;2023-02-03T22:45:19;9.10;99.90
46490;DHT22;32204;49.160;8.580;2023-02-03T22:47:44;9.10;99.90
46490;DHT22;32204;49.160;8.580;2023-02-03T22:50:11;9.10;99.90
46490;DHT22;32204;49.160;8.580;2023-02-03T22:52:37;9.10;99.90
46490;DHT22;32204;49.160;8.580;2023-02-03T22:55:04;9.20;99.90
46490;DHT22;32204;49.160;8.580;2023-02-03T22:57:30;9.20;99.90
46490;DHT22;32204;49.160;8.580;2023-02-03T22:59:55;9.10;99.90
46490;DHT22;32204;49.160;8.580;2023-02-03T23:02:21;9.10;99.90
46490;DHT22;32204;49.160;8.580;2023-02-03T23:04:46;9.10;99.90
46490;DHT22;32204;49.160;8.580;2023-02-03T23:07:12;9.10;99.90
46490;DHT22;32204;49.160;8.580;2023-02-03T23:09:38;9.10;99.90
46490;DHT22;32204;49.160;8.580;2023-02-03T23:12:04;9.10;99.90
46490;DHT22;32204;49.160;8.580;2023-02-03T23:14:30;9.00;99.90
46490;DHT22;32204;49.160;8.580;2023-02-03T23:16:55;9.00;99.90
46490;DHT22;32204;49.160;8.580;2023-02-03T23:19:21;9.00;99.90
46490;DHT22;32204;49.160;8.580;2023-02-03T23:21:47;8.90;99.90
46490;DHT22;32204;49.160;8.580;2023-02-03T23:24:12;8.90;99.90
46490;DHT22;32204;49.160;8.580;2023-02-03T23:26:38;8.90;99.90
46490;DHT22;32204;49.160;8.580;2023-02-03T23:29:03;8.90;99.90
46490;DHT22;32204;49.160;8.580;2023-02-03T23:31:29;8.90;99.90
46490;DHT22;32204;49.160;8.580;2023-02-03T23:33:55;8.90;99.90
46490;DHT22;32204;49.160;8.580;2023-02-03T23:36:39;8.90;99.90
46490;DHT22;32204;49.160;8.580;2023-02-03T23:39:04;8.90;99.90
46490;DHT22;32204;49.160;8.580;2023-02-03T23:41:30;8.80;99.90
46490;DHT22;32204;49.160;8.580;2023-02-03T23:43:56;8.90;99.90
46490;DHT22;32204;49.160;8.580;2023-02-03T23:46:22;8.90;99.90
46490;DHT22;32204;49.160;8.580;2023-02-03T23:48:47;8.90;99.90
46490;DHT22;32204;49.160;8.580;2023-02-03T23:51:13;8.80;99.90
46490;DHT22;32204;49.160;8.580;2023-02-03T23:53:38;8.90;99.90
46490;DHT22;32204;49.160;8.580;2023-02-03T23:56:04;8.80;99.90
46490;DHT22;32204;49.160;8.580;2023-02-03T23:58:30;8.80;99.90
